Big Bear Station Historical Data
Daily Summary for March 10, 2017 Units:  English    Metric   Both
« Previous Day
Next Day »
Daily Weekly Monthly Yearly Custom
  High: Low: Average:
Temperature: 63.3 °F 28.0 °F 42.6 °F
Dew Point: 33.8 °F 19.0 °F 28.2 °F
Humidity: 96 % 18 % 64 %
Wind Speed: 4.7 mph 0.0 mph 0.9 mph
Wind Gust: -999.0 mph - -
Wind:- - WSW
Pressure: 30.29 in 30.24 in -
Precipitation: 0.00 in    
Historical Graphs
 
 
Tabular Data for March 10, 2017
Time Temperature Dew Point Pressure Wind Wind Speed Wind Gust Humidity Rainfall Rate (Hourly)
00:08 32.4 °F 29.2 °F 30.29 in Calm   -999.0 mph 88 % 0 in
00:23 31.8 °F 28.9 °F 30.29 in Calm   -999.0 mph 89 % 0 in
00:39 31.6 °F 29.3 °F 30.29 in Calm   -999.0 mph 91 % 0 in
00:54 31.5 °F 29.4 °F 30.29 in Calm   -999.0 mph 92 % 0 in
01:09 31.1 °F 29.0 °F 30.29 in Calm   -999.0 mph 92 % 0 in
01:24 31.3 °F 29.5 °F 30.29 in Calm   -999.0 mph 93 % 0 in
01:39 31.3 °F 29.5 °F 30.29 in Calm   -999.0 mph 93 % 0 in
01:55 30.7 °F 29.2 °F 30.29 in Calm   -999.0 mph 94 % 0 in
02:10 30.6 °F 29.1 °F 30.28 in Calm   -999.0 mph 94 % 0 in
02:25 30.2 °F 28.7 °F 30.28 in Calm   -999.0 mph 94 % 0 in
02:40 30.0 °F 28.2 °F 30.27 in Calm   -999.0 mph 93 % 0 in
02:55 29.7 °F 28.2 °F 30.27 in Calm   -999.0 mph 94 % 0 in
03:11 29.7 °F 28.4 °F 30.27 in Calm   -999.0 mph 95 % 0 in
03:26 29.7 °F 28.7 °F 30.27 in Calm   -999.0 mph 96 % 0 in
03:41 29.5 °F 28.5 °F 30.27 in Calm   -999.0 mph 96 % 0 in
03:56 29.3 °F 28.3 °F 30.26 in Calm   -999.0 mph 96 % 0 in
04:11 28.8 °F 27.5 °F 30.26 in Calm   -999.0 mph 95 % 0 in
04:27 28.8 °F 27.5 °F 30.26 in Calm   -999.0 mph 95 % 0 in
04:42 28.9 °F 27.6 °F 30.26 in Calm   -999.0 mph 95 % 0 in
04:57 28.8 °F 27.8 °F 30.27 in Calm   -999.0 mph 96 % 0 in
05:12 28.9 °F 27.6 °F 30.27 in Calm   -999.0 mph 95 % 0 in
05:27 28.8 °F 27.3 °F 30.27 in Calm   -999.0 mph 94 % 0 in
05:43 28.8 °F 27.8 °F 30.27 in Calm   -999.0 mph 96 % 0 in
05:58 28.4 °F 27.4 °F 30.28 in Calm   -999.0 mph 96 % 0 in
06:13 28.2 °F 27.2 °F 30.28 in Calm   -999.0 mph 96 % 0 in
06:28 28.0 °F 26.5 °F 30.28 in Calm   -999.0 mph 94 % 0 in
06:44 28.0 °F 26.5 °F 30.28 in Calm   -999.0 mph 94 % 0 in
06:59 28.6 °F 27.6 °F 30.28 in Calm   -999.0 mph 96 % 0 in
07:14 28.8 °F 27.5 °F 30.29 in Calm   -999.0 mph 95 % 0 in
07:29 31.1 °F 29.6 °F 30.29 in Calm   -999.0 mph 94 % 0 in
07:44 32.2 °F 30.9 °F 30.29 in Calm   -999.0 mph 95 % 0 in
08:00 33.8 °F 32.5 °F 30.29 in Calm   -999.0 mph 95 % 0 in
08:15 35.6 °F 32.7 °F 30.29 in Calm   -999.0 mph 89 % 0 in
08:30 37.0 °F 33.8 °F 30.29 in Calm   -999.0 mph 88 % 0 in
08:45 39.7 °F 31.8 °F 30.29 in Calm   -999.0 mph 73 % 0 in
09:00 41.7 °F 32.3 °F 30.29 in Calm   -999.0 mph 69 % 0 in
09:16 43.7 °F 31.9 °F 30.29 in Calm   -999.0 mph 63 % 0 in
09:31 45.5 °F 32.4 °F 30.28 in Calm   -999.0 mph 60 % 0 in
09:46 48.2 °F 29.4 °F 30.28 in Calm   -999.0 mph 48 % 0 in
10:01 55.6 °F 25.4 °F 30.28 in Calm   -999.0 mph 31 % 0 in
10:16 58.1 °F 25.1 °F 30.28 in NW 2.2 mph -999.0 mph 28 % 0 in
10:32 58.6 °F 25.6 °F 30.28 in North 3.2 mph -999.0 mph 28 % 0 in
10:47 58.8 °F 24.0 °F 30.28 in WNW 3.2 mph -999.0 mph 26 % 0 in
11:02 59.9 °F 25.8 °F 30.28 in WNW 2.2 mph -999.0 mph 27 % 0 in
11:18 59.7 °F 29.0 °F 30.27 in NNW 2.7 mph -999.0 mph 31 % 0 in
11:33 59.9 °F 23.0 °F 30.27 in NNE 2.7 mph -999.0 mph 24 % 0 in
11:48 60.3 °F 26.2 °F 30.26 in WNW 2.7 mph -999.0 mph 27 % 0 in
12:03 62.6 °F 22.1 °F 30.26 in NNW 1.7 mph -999.0 mph 21 % 0 in
12:18 62.2 °F 25.9 °F 30.26 in NNW 2.7 mph -999.0 mph 25 % 0 in
12:34 62.2 °F 22.9 °F 30.25 in SSW 3.7 mph -999.0 mph 22 % 0 in
12:49 63.3 °F 19.0 °F 30.25 in South 4.7 mph -999.0 mph 18 % 0 in
13:04 61.7 °F 24.5 °F 30.26 in WNW 1.7 mph -999.0 mph 24 % 0 in
13:19 58.8 °F 26.6 °F 30.26 in NW 3.2 mph -999.0 mph 29 % 0 in
13:34 59.2 °F 28.6 °F 30.26 in NNW 2.2 mph -999.0 mph 31 % 0 in
13:50 59.9 °F 26.7 °F 30.25 in NW 2.7 mph -999.0 mph 28 % 0 in
14:05 59.0 °F 26.8 °F 30.26 in NW 2.7 mph -999.0 mph 29 % 0 in
14:20 59.0 °F 25.9 °F 30.25 in SW 2.2 mph -999.0 mph 28 % 0 in
14:36 58.8 °F 30.5 °F 30.25 in NNW 2.7 mph -999.0 mph 34 % 0 in
14:51 57.9 °F 29.0 °F 30.25 in NNW 2.7 mph -999.0 mph 33 % 0 in
15:06 58.5 °F 27.2 °F 30.25 in NNE 2.2 mph -999.0 mph 30 % 0 in
15:21 57.9 °F 28.2 °F 30.24 in NW 3.2 mph -999.0 mph 32 % 0 in
15:37 58.6 °F 29.6 °F 30.24 in NW 2.2 mph -999.0 mph 33 % 0 in
15:52 57.7 °F 27.3 °F 30.24 in NW 1.7 mph -999.0 mph 31 % 0 in
16:07 57.2 °F 27.6 °F 30.24 in Calm   -999.0 mph 32 % 0 in
16:22 56.8 °F 30.8 °F 30.24 in SSW 1.7 mph -999.0 mph 37 % 0 in
16:38 56.7 °F 31.4 °F 30.24 in SSE 2.2 mph -999.0 mph 38 % 0 in
16:53 55.0 °F 31.1 °F 30.24 in SW 1.7 mph -999.0 mph 40 % 0 in
17:08 53.6 °F 30.5 °F 30.24 in Calm   -999.0 mph 41 % 0 in
17:23 50.9 °F 32.9 °F 30.24 in South 2.2 mph -999.0 mph 50 % 0 in
17:38 49.1 °F 32.7 °F 30.24 in South 2.2 mph -999.0 mph 53 % 0 in
17:54 47.3 °F 31.9 °F 30.24 in SSE 1.7 mph -999.0 mph 55 % 0 in
18:09 46.0 °F 29.8 °F 30.24 in Calm   -999.0 mph 53 % 0 in
18:25 44.6 °F 29.9 °F 30.24 in South 2.2 mph -999.0 mph 56 % 0 in
18:55 42.6 °F 28.0 °F 30.25 in SSW 1.1 mph -999.0 mph 56 % 0 in
19:10 41.9 °F 24.6 °F 30.25 in SSW 1.7 mph -999.0 mph 50 % 0 in
19:26 41.2 °F 24.9 °F 30.24 in Calm   -999.0 mph 52 % 0 in
19:41 40.6 °F 28.2 °F 30.24 in SSE 2.2 mph -999.0 mph 61 % 0 in
19:56 39.7 °F 26.5 °F 30.25 in Calm   -999.0 mph 59 % 0 in
20:11 39.7 °F 27.3 °F 30.25 in Calm   -999.0 mph 61 % 0 in
20:26 39.2 °F 28.4 °F 30.25 in Calm   -999.0 mph 65 % 0 in
20:42 39.6 °F 28.4 °F 30.25 in South 1.1 mph -999.0 mph 64 % 0 in
20:57 38.8 °F 26.9 °F 30.25 in SSW 1.1 mph -999.0 mph 62 % 0 in
21:12 38.1 °F 27.4 °F 30.25 in Calm   -999.0 mph 65 % 0 in
21:27 37.8 °F 28.2 °F 30.25 in South 1.7 mph -999.0 mph 68 % 0 in
21:42 37.6 °F 27.6 °F 30.25 in Calm   -999.0 mph 67 % 0 in
21:58 37.2 °F 26.5 °F 30.25 in Calm   -999.0 mph 65 % 0 in
22:13 37.2 °F 26.9 °F 30.25 in Calm   -999.0 mph 66 % 0 in
22:28 37.0 °F 28.5 °F 30.25 in Calm   -999.0 mph 71 % 0 in
22:43 36.7 °F 28.9 °F 30.25 in Calm   -999.0 mph 73 % 0 in
22:58 36.9 °F 28.4 °F 30.24 in Calm   -999.0 mph 71 % 0 in
23:14 36.3 °F 28.1 °F 30.24 in Calm   -999.0 mph 72 % 0 in
23:29 36.1 °F 27.9 °F 30.24 in Calm   -999.0 mph 72 % 0 in
23:45 35.4 °F 28.6 °F 30.24 in Calm   -999.0 mph 76 % 0 in
Big Bear CA Weather
Compliments of Weather Underground - 1.5 mb